Time;durP1;ratioP1;P1;durP2;ratioP2;P2;SDS_P1;SDS_P2;PMS_P1;PMS_P2;Temp;Humidity;BMP_temperature;BMP_pressure;BME280_temperature;BME280_humidity;BME280_pressure;Samples;Min_cycle;Max_cycle;Signal;HPM_P1;HPM_P2
2024/01/27 00:01:57;;;;;;;203.53;58.30;;;;;;;;;;4972254;28;20459;-42
2024/01/27 00:04:23;;;;;;;203.77;58.20;;;;;;;;;;4971708;28;20928;-43
2024/01/27 00:06:49;;;;;;;203.30;56.90;;;;;;;;;;4972196;28;20920;-43
2024/01/27 00:09:15;;;;;;;202.90;57.60;;;;;;;;;;4971939;28;20773;-42
2024/01/27 00:11:41;;;;;;;205.27;58.70;;;;;;;;;;4972100;28;20413;-42
2024/01/27 00:14:07;;;;;;;206.03;58.70;;;;;;;;;;4977337;28;20464;-42
2024/01/27 00:16:33;;;;;;;202.98;56.85;;;;;;;;;;4966879;28;20428;-42
2024/01/27 00:18:59;;;;;;;203.82;57.63;;;;;;;;;;4973929;28;20190;-42
2024/01/27 00:21:25;;;;;;;204.23;58.77;;;;;;;;;;4972797;28;20204;-43
2024/01/27 00:23:51;;;;;;;201.70;55.70;;;;;;;;;;4975533;28;20487;-42
2024/01/27 00:26:17;;;;;;;203.50;58.03;;;;;;;;;;4971718;28;20508;-42
2024/01/27 00:28:43;;;;;;;202.80;56.60;;;;;;;;;;4971993;28;20289;-43
2024/01/27 00:31:09;;;;;;;202.70;57.57;;;;;;;;;;4974138;28;20483;-43
2024/01/27 00:33:36;;;;;;;211.07;62.13;;;;;;;;;;4975033;28;20409;-45
2024/01/27 00:36:02;;;;;;;206.68;59.40;;;;;;;;;;4973849;28;20508;-45
2024/01/27 00:38:28;;;;;;;200.18;54.97;;;;;;;;;;4975286;28;20220;-43
2024/01/27 00:40:54;;;;;;;202.33;56.67;;;;;;;;;;4975421;28;20182;-43
2024/01/27 00:43:20;;;;;;;207.85;60.80;;;;;;;;;;4974934;28;20408;-43
2024/01/27 00:45:46;;;;;;;202.40;57.57;;;;;;;;;;4974959;28;20197;-43
2024/01/27 00:48:12;;;;;;;202.73;57.37;;;;;;;;;;4975040;28;20429;-44
2024/01/27 00:50:38;;;;;;;201.47;57.13;;;;;;;;;;4975164;28;20409;-42
2024/01/27 00:53:04;;;;;;;202.68;57.13;;;;;;;;;;4975073;28;20421;-42
2024/01/27 00:55:30;;;;;;;199.40;55.58;;;;;;;;;;4974924;28;20212;-42
2024/01/27 00:57:56;;;;;;;202.63;57.17;;;;;;;;;;4975176;28;20581;-43
2024/01/27 01:00:22;;;;;;;203.43;57.05;;;;;;;;;;4975017;28;20804;-42
2024/01/27 01:02:48;;;;;;;201.00;56.10;;;;;;;;;;4974897;28;20681;-43
2024/01/27 01:05:14;;;;;;;204.93;58.60;;;;;;;;;;4974373;28;20201;-42
2024/01/27 01:07:40;;;;;;;203.50;57.03;;;;;;;;;;4972753;28;20187;-42
2024/01/27 01:10:06;;;;;;;205.85;59.25;;;;;;;;;;4974109;28;20585;-43
2024/01/27 01:12:32;;;;;;;203.82;59.10;;;;;;;;;;4971598;28;20184;-43
2024/01/27 01:14:58;;;;;;;203.30;57.43;;;;;;;;;;4972587;28;20202;-42
2024/01/27 01:17:24;;;;;;;200.50;55.57;;;;;;;;;;4975382;28;20401;-43
2024/01/27 01:19:50;;;;;;;201.37;56.63;;;;;;;;;;4975366;28;20805;-43
2024/01/27 01:22:16;;;;;;;201.93;57.30;;;;;;;;;;4974970;28;20787;-42
2024/01/27 01:24:42;;;;;;;203.33;58.23;;;;;;;;;;4974844;28;20288;-41
2024/01/27 01:27:08;;;;;;;201.38;56.33;;;;;;;;;;4974931;28;20435;-43
2024/01/27 01:29:35;;;;;;;199.97;56.23;;;;;;;;;;4975158;28;20217;-42
2024/01/27 01:32:02;;;;;;;201.40;56.33;;;;;;;;;;4981845;28;20421;-42
2024/01/27 01:34:28;;;;;;;203.50;59.55;;;;;;;;;;4974408;28;20284;-43
2024/01/27 01:36:54;;;;;;;201.13;56.50;;;;;;;;;;4975034;28;20204;-43
2024/01/27 01:39:20;;;;;;;201.32;58.40;;;;;;;;;;4973883;28;20255;-42
2024/01/27 01:41:46;;;;;;;200.37;57.13;;;;;;;;;;4973694;28;20325;-43
2024/01/27 01:44:12;;;;;;;200.68;56.92;;;;;;;;;;4974456;28;20448;-43
2024/01/27 01:46:38;;;;;;;203.30;58.90;;;;;;;;;;4975510;28;20192;-44
2024/01/27 01:49:04;;;;;;;200.90;57.25;;;;;;;;;;4974727;28;20417;-42
2024/01/27 01:51:30;;;;;;;201.38;56.42;;;;;;;;;;4974755;28;20642;-42
2024/01/27 01:53:58;;;;;;;201.57;57.03;;;;;;;;;;4974371;28;20197;-43
2024/01/27 01:56:24;;;;;;;203.55;59.53;;;;;;;;;;4974642;28;20170;-43
2024/01/27 01:58:50;;;;;;;201.20;56.78;;;;;;;;;;4974727;28;20205;-43
2024/01/27 02:01:21;;;;;;;202.97;57.70;;;;;;;;;;4974176;28;20677;-43
2024/01/27 02:03:56;;;;;;;207.70;62.70;;;;;;;;;;4973480;28;20437;-42
2024/01/27 02:06:22;;;;;;;200.32;56.63;;;;;;;;;;4966317;28;20169;-42
2024/01/27 02:08:49;;;;;;;201.35;57.40;;;;;;;;;;4974307;28;20188;-42
2024/01/27 02:11:15;;;;;;;203.68;58.75;;;;;;;;;;4974426;28;20592;-43
2024/01/27 02:13:41;;;;;;;209.07;62.73;;;;;;;;;;4970540;28;20178;-43
2024/01/27 02:16:08;;;;;;;203.52;59.05;;;;;;;;;;4977072;28;20433;-43
2024/01/27 02:18:35;;;;;;;199.60;57.17;;;;;;;;;;4974305;28;20185;-44
2024/01/27 02:21:01;;;;;;;201.50;57.65;;;;;;;;;;4976865;28;20177;-43
2024/01/27 02:23:27;;;;;;;211.77;65.40;;;;;;;;;;4973707;28;20205;-43
2024/01/27 02:25:53;;;;;;;201.48;56.15;;;;;;;;;;4972895;28;20512;-43
2024/01/27 02:28:19;;;;;;;202.07;56.38;;;;;;;;;;4974041;28;20546;-43
2024/01/27 02:30:45;;;;;;;199.63;55.97;;;;;;;;;;4974130;28;20178;-43
2024/01/27 02:33:10;;;;;;;205.85;58.75;;;;;;;;;;4973608;28;20960;-42
2024/01/27 02:35:37;;;;;;;200.23;57.23;;;;;;;;;;4972742;28;20228;-43
2024/01/27 02:38:03;;;;;;;199.85;56.10;;;;;;;;;;4973850;28;20412;-44
2024/01/27 02:40:29;;;;;;;200.65;56.08;;;;;;;;;;4973903;28;20256;-44
2024/01/27 02:42:55;;;;;;;202.07;57.27;;;;;;;;;;4973798;28;20212;-44
2024/01/27 02:45:21;;;;;;;202.97;58.67;;;;;;;;;;4972195;28;20814;-44
2024/01/27 02:47:46;;;;;;;199.47;56.33;;;;;;;;;;4973976;28;20549;-43
2024/01/27 02:50:13;;;;;;;200.83;57.97;;;;;;;;;;4973724;28;20435;-43
2024/01/27 02:52:39;;;;;;;203.57;58.78;;;;;;;;;;4973564;28;20900;-43
2024/01/27 02:55:06;;;;;;;202.77;58.47;;;;;;;;;;4973502;28;20213;-43
2024/01/27 02:57:32;;;;;;;203.02;56.97;;;;;;;;;;4973669;28;20401;-43
2024/01/27 02:59:58;;;;;;;202.40;56.70;;;;;;;;;;4973810;28;20571;-44
2024/01/27 03:02:24;;;;;;;202.23;57.92;;;;;;;;;;4973766;28;20809;-44
2024/01/27 03:04:50;;;;;;;201.77;57.40;;;;;;;;;;4973092;28;20190;-43
2024/01/27 03:07:16;;;;;;;200.60;56.90;;;;;;;;;;4973435;28;20440;-43
2024/01/27 03:09:42;;;;;;;200.48;56.65;;;;;;;;;;4973558;28;20413;-43
2024/01/27 03:12:08;;;;;;;202.82;58.45;;;;;;;;;;4973482;28;20276;-43
2024/01/27 03:14:34;;;;;;;201.90;57.90;;;;;;;;;;4973056;28;20202;-43
2024/01/27 03:17:00;;;;;;;201.80;56.65;;;;;;;;;;4973536;28;20177;-43
2024/01/27 03:19:26;;;;;;;201.57;56.67;;;;;;;;;;4973245;28;20659;-44
2024/01/27 03:21:52;;;;;;;202.30;56.97;;;;;;;;;;4973246;28;20404;-43
2024/01/27 03:24:18;;;;;;;202.33;56.93;;;;;;;;;;4973076;28;20219;-44
2024/01/27 03:26:44;;;;;;;199.10;55.17;;;;;;;;;;4973124;28;20512;-43
2024/01/27 03:29:10;;;;;;;201.87;56.57;;;;;;;;;;4973197;28;20428;-43
2024/01/27 03:31:36;;;;;;;202.45;57.80;;;;;;;;;;4973138;28;20413;-44
2024/01/27 03:34:03;;;;;;;199.93;56.50;;;;;;;;;;4972747;28;20216;-43
2024/01/27 03:36:29;;;;;;;201.10;57.03;;;;;;;;;;4972948;28;20208;-43
2024/01/27 03:38:56;;;;;;;197.98;55.20;;;;;;;;;;4973235;28;20186;-43
2024/01/27 03:41:22;;;;;;;201.82;56.28;;;;;;;;;;4965441;28;20249;-43
2024/01/27 03:43:48;;;;;;;200.37;55.60;;;;;;;;;;4972908;28;20264;-42
2024/01/27 03:46:14;;;;;;;200.90;55.85;;;;;;;;;;4972920;28;20409;-43
2024/01/27 03:48:40;;;;;;;202.13;57.35;;;;;;;;;;4973000;28;20559;-43
2024/01/27 03:51:06;;;;;;;200.33;55.60;;;;;;;;;;4973084;28;20178;-44
2024/01/27 03:53:32;;;;;;;204.67;59.43;;;;;;;;;;4972730;28;20416;-43
2024/01/27 03:55:59;;;;;;;201.60;56.43;;;;;;;;;;4972776;28;20472;-44
2024/01/27 03:58:25;;;;;;;200.07;55.42;;;;;;;;;;4973037;28;20429;-43
2024/01/27 04:00:52;;;;;;;199.50;54.92;;;;;;;;;;4972872;28;20244;-43
2024/01/27 04:03:18;;;;;;;201.73;56.88;;;;;;;;;;4972563;28;20197;-43
2024/01/27 04:05:44;;;;;;;201.77;57.78;;;;;;;;;;4974886;28;20353;-43
2024/01/27 04:08:10;;;;;;;203.10;58.10;;;;;;;;;;4976801;28;20283;-43
2024/01/27 04:10:36;;;;;;;201.50;56.93;;;;;;;;;;4976986;28;20409;-43
2024/01/27 04:13:02;;;;;;;199.75;56.30;;;;;;;;;;4976792;28;20452;-42
2024/01/27 04:15:29;;;;;;;199.02;54.45;;;;;;;;;;4976268;28;20202;-43
2024/01/27 04:17:55;;;;;;;200.10;55.25;;;;;;;;;;4976549;28;20182;-43
2024/01/27 04:20:21;;;;;;;198.88;54.47;;;;;;;;;;4980587;28;20184;-44
2024/01/27 04:22:47;;;;;;;201.87;56.93;;;;;;;;;;4976320;28;20257;-43
2024/01/27 04:25:13;;;;;;;201.73;57.17;;;;;;;;;;4976090;28;20440;-43
2024/01/27 04:27:39;;;;;;;200.27;56.00;;;;;;;;;;4983915;28;20431;-43
2024/01/27 04:30:07;;;;;;;201.02;55.95;;;;;;;;;;4976507;28;20182;-43
2024/01/27 04:32:33;;;;;;;200.52;56.00;;;;;;;;;;4976303;28;20260;-43
2024/01/27 04:34:59;;;;;;;200.25;55.50;;;;;;;;;;4975812;28;20213;-43
2024/01/27 04:37:26;;;;;;;200.63;56.07;;;;;;;;;;4976354;28;20248;-44
2024/01/27 04:39:52;;;;;;;198.73;55.70;;;;;;;;;;4976421;28;20495;-43
2024/01/27 04:42:18;;;;;;;199.33;55.43;;;;;;;;;;4976279;28;20220;-43
2024/01/27 04:44:44;;;;;;;199.07;54.70;;;;;;;;;;4975477;28;20436;-43
2024/01/27 04:47:10;;;;;;;196.50;54.77;;;;;;;;;;4975925;28;20241;-43
2024/01/27 04:49:36;;;;;;;197.18;53.58;;;;;;;;;;4976087;28;20800;-43
2024/01/27 04:52:02;;;;;;;199.40;55.60;;;;;;;;;;4976289;28;20177;-43
2024/01/27 04:54:27;;;;;;;199.00;54.13;;;;;;;;;;4975815;28;20995;-44
2024/01/27 04:56:53;;;;;;;195.27;52.60;;;;;;;;;;4976167;28;20409;-42
2024/01/27 04:59:19;;;;;;;197.13;53.60;;;;;;;;;;4976059;28;20401;-43
2024/01/27 05:01:46;;;;;;;198.50;54.90;;;;;;;;;;4975957;28;20410;-43
2024/01/27 05:04:12;;;;;;;197.73;53.38;;;;;;;;;;4975668;28;20559;-42
2024/01/27 05:06:39;;;;;;;197.75;53.80;;;;;;;;;;4975690;28;20189;-43
2024/01/27 05:09:08;;;;;;;199.48;54.33;;;;;;;;;;4975748;28;20248;-44
2024/01/27 05:11:34;;;;;;;198.90;53.85;;;;;;;;;;4975917;28;20182;-43
2024/01/27 05:14:00;;;;;;;197.55;53.75;;;;;;;;;;4975388;28;20581;-43
2024/01/27 05:16:26;;;;;;;199.05;54.92;;;;;;;;;;4975671;28;20588;-43
2024/01/27 05:18:52;;;;;;;195.15;52.67;;;;;;;;;;4975921;28;20174;-43
2024/01/27 05:21:18;;;;;;;196.23;53.72;;;;;;;;;;4979691;28;20209;-43
2024/01/27 05:23:44;;;;;;;197.48;53.50;;;;;;;;;;4975226;28;20173;-43
2024/01/27 05:26:11;;;;;;;197.57;53.58;;;;;;;;;;4976402;28;20200;-44
2024/01/27 05:28:37;;;;;;;195.93;53.22;;;;;;;;;;4975537;28;20173;-43
2024/01/27 05:31:04;;;;;;;197.50;53.40;;;;;;;;;;4975308;28;20182;-44
2024/01/27 05:33:30;;;;;;;199.77;55.22;;;;;;;;;;4975138;28;20192;-42
2024/01/27 05:35:56;;;;;;;199.27;54.60;;;;;;;;;;4969720;28;20310;-44
2024/01/27 05:38:22;;;;;;;196.13;52.90;;;;;;;;;;4982024;28;20425;-44
2024/01/27 05:40:49;;;;;;;197.35;53.90;;;;;;;;;;4975102;28;21028;-43
2024/01/27 05:43:15;;;;;;;197.45;53.35;;;;;;;;;;4975045;28;20280;-43
2024/01/27 05:45:41;;;;;;;197.55;55.17;;;;;;;;;;4974563;28;20202;-43
2024/01/27 05:48:07;;;;;;;196.77;53.60;;;;;;;;;;4974997;28;20212;-43
2024/01/27 05:50:35;;;;;;;194.95;52.67;;;;;;;;;;4974907;28;20464;-43
2024/01/27 05:53:01;;;;;;;197.15;53.55;;;;;;;;;;4974880;28;20188;-43
2024/01/27 05:55:27;;;;;;;196.13;52.90;;;;;;;;;;4980503;28;20288;-42
2024/01/27 05:57:55;;;;;;;196.43;53.40;;;;;;;;;;4974771;28;20416;-43
2024/01/27 06:00:21;;;;;;;198.23;54.20;;;;;;;;;;4966950;28;20902;-43
2024/01/27 06:02:47;;;;;;;197.23;54.45;;;;;;;;;;4974715;28;20179;-43
2024/01/27 06:05:13;;;;;;;197.95;54.13;;;;;;;;;;4974403;28;20201;-43
2024/01/27 06:07:39;;;;;;;195.90;52.50;;;;;;;;;;4974678;28;20182;-43
2024/01/27 06:10:07;;;;;;;198.82;54.30;;;;;;;;;;4974547;28;20179;-44
2024/01/27 06:12:34;;;;;;;198.55;54.70;;;;;;;;;;4974327;28;20184;-43
2024/01/27 06:15:00;;;;;;;197.82;54.22;;;;;;;;;;4974036;28;20308;-43
2024/01/27 06:17:26;;;;;;;195.87;53.00;;;;;;;;;;4974358;28;20260;-43
2024/01/27 06:19:52;;;;;;;199.68;56.05;;;;;;;;;;4974429;28;20404;-43
2024/01/27 06:22:18;;;;;;;196.77;54.80;;;;;;;;;;4974402;28;20205;-43
2024/01/27 06:24:44;;;;;;;198.07;55.47;;;;;;;;;;4973757;28;20801;-42
2024/01/27 06:27:11;;;;;;;196.43;54.05;;;;;;;;;;4973545;28;20436;-43
2024/01/27 06:29:37;;;;;;;196.07;54.08;;;;;;;;;;4973704;28;20254;-43
2024/01/27 06:32:03;;;;;;;198.90;56.03;;;;;;;;;;4973910;28;20173;-43
2024/01/27 06:34:29;;;;;;;200.65;56.03;;;;;;;;;;4973509;28;20506;-43
2024/01/27 06:36:55;;;;;;;198.23;55.10;;;;;;;;;;4974063;28;20738;-43
2024/01/27 06:39:21;;;;;;;198.97;56.10;;;;;;;;;;4973938;28;20928;-42
2024/01/27 06:41:47;;;;;;;199.45;55.30;;;;;;;;;;4973622;28;20484;-43
2024/01/27 06:44:13;;;;;;;198.75;55.47;;;;;;;;;;4973532;28;20288;-43
2024/01/27 06:46:39;;;;;;;198.95;55.85;;;;;;;;;;4973727;28;20706;-42
2024/01/27 06:49:05;;;;;;;199.17;56.60;;;;;;;;;;4973642;28;20289;-43
2024/01/27 06:51:31;;;;;;;197.50;55.83;;;;;;;;;;4973692;28;20417;-43
2024/01/27 06:53:57;;;;;;;197.47;54.23;;;;;;;;;;4973157;28;20433;-43
2024/01/27 06:56:23;;;;;;;199.20;56.05;;;;;;;;;;4973366;28;20459;-43
2024/01/27 06:58:49;;;;;;;195.10;54.77;;;;;;;;;;4973528;28;20577;-42
2024/01/27 07:01:15;;;;;;;198.50;55.37;;;;;;;;;;4973330;28;20409;-43
2024/01/27 07:03:41;;;;;;;197.73;55.70;;;;;;;;;;4973066;28;20444;-42
2024/01/27 07:06:07;;;;;;;200.57;57.95;;;;;;;;;;4973318;28;20421;-42
2024/01/27 07:08:33;;;;;;;195.77;53.60;;;;;;;;;;4973345;28;20181;-42
2024/01/27 07:10:59;;;;;;;195.63;54.13;;;;;;;;;;4973157;28;20449;-42
2024/01/27 07:13:26;;;;;;;199.25;55.90;;;;;;;;;;4973004;28;20413;-42
2024/01/27 07:15:52;;;;;;;197.45;55.10;;;;;;;;;;4972980;28;20198;-42
2024/01/27 07:18:19;;;;;;;199.03;55.20;;;;;;;;;;4973596;28;20265;-43
2024/01/27 07:20:45;;;;;;;198.48;55.80;;;;;;;;;;4973188;28;20844;-43
2024/01/27 07:23:11;;;;;;;199.10;55.87;;;;;;;;;;4973066;28;20260;-43
2024/01/27 07:25:37;;;;;;;200.90;56.13;;;;;;;;;;4972607;28;20944;-43
2024/01/27 07:28:03;;;;;;;202.30;58.10;;;;;;;;;;4969159;28;20484;-43
2024/01/27 07:30:30;;;;;;;198.90;55.92;;;;;;;;;;4978335;28;20240;-43
2024/01/27 07:32:56;;;;;;;201.98;58.85;;;;;;;;;;4972961;28;20173;-42
2024/01/27 07:35:22;;;;;;;199.80;57.70;;;;;;;;;;4971184;28;20208;-43
2024/01/27 07:37:48;;;;;;;199.50;57.33;;;;;;;;;;4972944;28;20421;-42
2024/01/27 07:40:14;;;;;;;199.67;55.90;;;;;;;;;;4972859;28;20491;-42
2024/01/27 07:42:41;;;;;;;200.13;56.90;;;;;;;;;;4972765;28;20413;-43
2024/01/27 07:45:08;;;;;;;197.77;55.72;;;;;;;;;;4972421;28;20198;-43
2024/01/27 07:47:34;;;;;;;198.38;56.35;;;;;;;;;;4973475;28;20264;-43
2024/01/27 07:50:00;;;;;;;199.85;58.55;;;;;;;;;;4972765;28;20650;-42
2024/01/27 07:52:26;;;;;;;201.73;59.97;;;;;;;;;;4972906;28;20273;-42
2024/01/27 07:54:54;;;;;;;200.30;58.28;;;;;;;;;;4972234;28;20468;-43
2024/01/27 07:57:20;;;;;;;199.25;57.80;;;;;;;;;;4972568;28;20176;-42
2024/01/27 07:59:46;;;;;;;199.48;58.63;;;;;;;;;;4972619;28;20668;-42
2024/01/27 08:02:12;;;;;;;203.30;59.70;;;;;;;;;;4972734;28;20178;-42
2024/01/27 08:04:38;;;;;;;202.82;60.20;;;;;;;;;;4972214;28;20435;-42
2024/01/27 08:07:09;;;;;;;197.98;55.30;;;;;;;;;;4972571;28;20265;-42
2024/01/27 08:09:36;;;;;;;201.90;58.58;;;;;;;;;;4972586;28;20654;-42
2024/01/27 08:12:02;;;;;;;199.38;57.25;;;;;;;;;;4972406;28;20288;-42
2024/01/27 08:14:33;;;;;;;199.88;58.05;;;;;;;;;;4972050;28;20600;-41
2024/01/27 08:16:59;;;;;;;202.32;61.53;;;;;;;;;;4972428;28;20186;-43
2024/01/27 08:19:24;;;;;;;201.30;60.07;;;;;;;;;;4972433;28;20189;-43
2024/01/27 08:21:51;;;;;;;200.95;58.80;;;;;;;;;;4972455;28;20491;-42
2024/01/27 08:24:17;;;;;;;201.07;58.53;;;;;;;;;;4972097;28;20225;-42
2024/01/27 08:26:43;;;;;;;200.77;58.90;;;;;;;;;;4972425;28;20268;-41
2024/01/27 08:29:09;;;;;;;199.65;57.58;;;;;;;;;;4972431;28;20912;-42
2024/01/27 08:31:37;;;;;;;201.13;57.85;;;;;;;;;;4972473;28;20193;-43
2024/01/27 08:34:03;;;;;;;202.13;59.78;;;;;;;;;;4971968;28;20193;-42
2024/01/27 08:36:29;;;;;;;201.20;58.40;;;;;;;;;;4972390;28;20169;-43
2024/01/27 08:38:55;;;;;;;204.53;63.27;;;;;;;;;;4979474;28;20517;-43
2024/01/27 08:41:22;;;;;;;202.17;59.93;;;;;;;;;;4972470;28;20413;-42
2024/01/27 08:43:48;;;;;;;202.40;59.65;;;;;;;;;;4971958;28;20424;-43
2024/01/27 08:46:15;;;;;;;204.18;60.25;;;;;;;;;;4972320;28;20201;-42
2024/01/27 08:48:41;;;;;;;207.93;63.13;;;;;;;;;;4972226;28;20185;-43
2024/01/27 08:51:11;;;;;;;210.70;64.15;;;;;;;;;;4970371;28;20595;-43
2024/01/27 08:53:37;;;;;;;212.02;63.85;;;;;;;;;;4980496;28;20183;-43
2024/01/27 08:56:03;;;;;;;212.27;66.30;;;;;;;;;;4975581;28;20573;-43
2024/01/27 08:58:29;;;;;;;215.00;66.75;;;;;;;;;;4975641;28;20906;-44
2024/01/27 09:00:55;;;;;;;213.83;67.87;;;;;;;;;;4975880;28;20189;-44
2024/01/27 09:03:21;;;;;;;220.10;74.47;;;;;;;;;;4975390;28;20409;-43
2024/01/27 09:05:47;;;;;;;219.43;70.73;;;;;;;;;;4975318;28;20440;-43
2024/01/27 09:08:13;;;;;;;222.25;70.63;;;;;;;;;;4975341;28;20421;-43
2024/01/27 09:10:39;;;;;;;220.05;71.45;;;;;;;;;;4975405;28;20210;-43
2024/01/27 09:13:05;;;;;;;219.00;68.80;;;;;;;;;;4975296;28;20220;-43
2024/01/27 09:15:31;;;;;;;219.77;70.77;;;;;;;;;;4975002;28;20467;-43
2024/01/27 09:17:59;;;;;;;223.82;74.30;;;;;;;;;;4972214;28;20444;-43
2024/01/27 09:20:25;;;;;;;224.30;74.20;;;;;;;;;;4975129;28;20173;-44
2024/01/27 09:22:53;;;;;;;234.13;83.90;;;;;;;;;;4972807;28;20170;-43
2024/01/27 09:25:19;;;;;;;225.30;75.03;;;;;;;;;;4970214;28;20504;-44
2024/01/27 09:27:45;;;;;;;231.20;76.47;;;;;;;;;;4974225;28;20704;-44
2024/01/27 09:30:11;;;;;;;230.97;78.97;;;;;;;;;;4973062;28;20863;-43
2024/01/27 09:32:37;;;;;;;231.60;78.20;;;;;;;;;;4973156;28;20441;-43
2024/01/27 09:35:04;;;;;;;229.97;75.67;;;;;;;;;;4972794;28;20292;-43
2024/01/27 09:37:30;;;;;;;233.52;77.97;;;;;;;;;;4973705;28;20405;-43
2024/01/27 09:39:56;;;;;;;234.63;77.28;;;;;;;;;;4973862;28;20528;-43
2024/01/27 09:42:22;;;;;;;235.18;79.22;;;;;;;;;;4974928;28;20169;-43
2024/01/27 09:44:49;;;;;;;236.05;78.65;;;;;;;;;;4974498;28;20691;-43
2024/01/27 09:47:16;;;;;;;238.18;78.28;;;;;;;;;;4974829;28;20219;-44
2024/01/27 09:49:42;;;;;;;244.20;87.10;;;;;;;;;;4974801;28;20189;-43
2024/01/27 09:52:08;;;;;;;242.27;82.73;;;;;;;;;;4974738;28;20431;-43
2024/01/27 09:54:35;;;;;;;244.23;83.83;;;;;;;;;;4974146;28;20870;-43
2024/01/27 09:57:01;;;;;;;242.87;83.50;;;;;;;;;;4974806;28;20447;-44
2024/01/27 09:59:28;;;;;;;243.67;85.30;;;;;;;;;;4974755;28;20396;-44
2024/01/27 10:01:54;;;;;;;240.70;82.18;;;;;;;;;;4974306;28;20421;-44
2024/01/27 10:04:21;;;;;;;242.25;84.35;;;;;;;;;;4973569;28;20561;-44
2024/01/27 10:06:49;;;;;;;245.60;86.33;;;;;;;;;;4974402;28;20237;-43
2024/01/27 10:09:15;;;;;;;242.83;84.13;;;;;;;;;;4974392;28;20417;-44
2024/01/27 10:11:42;;;;;;;239.97;83.07;;;;;;;;;;4974622;28;20408;-44
2024/01/27 10:14:08;;;;;;;242.20;88.93;;;;;;;;;;4974110;28;20499;-43
2024/01/27 10:16:42;;;;;;;241.80;84.67;;;;;;;;;;4974254;28;20433;-43
2024/01/27 10:19:12;;;;;;;241.47;82.77;;;;;;;;;;4974284;28;20434;-43
2024/01/27 10:21:38;;;;;;;239.00;81.15;;;;;;;;;;4974043;28;20401;-43
2024/01/27 10:24:06;;;;;;;240.47;83.20;;;;;;;;;;4972602;28;20289;-44
2024/01/27 10:26:33;;;;;;;238.38;82.18;;;;;;;;;;4973929;28;20428;-44
2024/01/27 10:28:59;;;;;;;241.37;86.13;;;;;;;;;;4974158;28;20223;-43
2024/01/27 10:31:29;;;;;;;238.32;81.90;;;;;;;;;;4974186;28;20414;-43
2024/01/27 10:34:01;;;;;;;241.90;84.40;;;;;;;;;;4973867;28;20208;-43
2024/01/27 10:36:27;;;;;;;243.87;87.17;;;;;;;;;;4974207;28;20415;-44
2024/01/27 10:38:53;;;;;;;242.17;88.30;;;;;;;;;;4974023;28;20417;-44
2024/01/27 10:41:27;;;;;;;244.10;91.00;;;;;;;;;;4973807;28;20491;-44
2024/01/27 10:43:53;;;;;;;236.02;80.75;;;;;;;;;;4973691;28;20845;-44
2024/01/27 10:46:21;;;;;;;239.07;81.97;;;;;;;;;;4973574;28;20204;-44
2024/01/27 10:48:52;;;;;;;238.25;82.57;;;;;;;;;;4973767;28;20490;-43
2024/01/27 10:51:23;;;;;;;238.95;84.45;;;;;;;;;;4973562;28;20262;-43
2024/01/27 10:53:50;;;;;;;241.85;86.53;;;;;;;;;;4976971;28;20186;-43
2024/01/27 10:56:16;;;;;;;236.52;80.05;;;;;;;;;;4972839;28;20199;-43
2024/01/27 10:58:42;;;;;;;238.57;82.60;;;;;;;;;;4973460;28;20184;-43
2024/01/27 11:01:10;;;;;;;244.40;86.70;;;;;;;;;;4968786;28;20236;-45
2024/01/27 11:03:38;;;;;;;244.07;92.00;;;;;;;;;;4972708;28;20466;-43
2024/01/27 11:06:05;;;;;;;243.83;90.93;;;;;;;;;;4969636;28;20423;-44
2024/01/27 11:08:31;;;;;;;245.27;91.60;;;;;;;;;;4970207;28;20476;-44
2024/01/27 11:10:58;;;;;;;242.23;90.33;;;;;;;;;;4971321;28;20475;-45
2024/01/27 11:13:24;;;;;;;246.27;91.73;;;;;;;;;;4970893;28;20405;-44
2024/01/27 11:15:58;;;;;;;243.50;92.50;;;;;;;;;;4972400;28;20524;-43
2024/01/27 11:18:24;;;;;;;240.57;92.70;;;;;;;;;;4972062;28;20963;-43
2024/01/27 11:20:53;;;;;;;238.13;88.70;;;;;;;;;;4981780;28;20409;-44
2024/01/27 11:23:19;;;;;;;244.97;97.20;;;;;;;;;;4973083;28;20432;-44
2024/01/27 11:25:45;;;;;;;239.10;91.07;;;;;;;;;;4973046;28;20442;-44
2024/01/27 11:28:17;;;;;;;240.03;90.40;;;;;;;;;;4973064;28;20435;-43
2024/01/27 11:30:47;;;;;;;241.80;92.57;;;;;;;;;;4973169;28;20458;-44
2024/01/27 11:33:13;;;;;;;241.33;89.23;;;;;;;;;;4972906;28;20459;-46
2024/01/27 11:35:39;;;;;;;239.37;88.23;;;;;;;;;;4972543;28;20548;-44
2024/01/27 11:38:05;;;;;;;243.10;94.17;;;;;;;;;;4973074;28;20921;-46
2024/01/27 11:40:32;;;;;;;233.77;84.47;;;;;;;;;;4973196;28;20417;-43
2024/01/27 11:43:00;;;;;;;240.40;95.57;;;;;;;;;;4973166;28;20401;-43
2024/01/27 11:45:28;;;;;;;234.97;86.20;;;;;;;;;;4972712;28;20421;-44
2024/01/27 11:47:55;;;;;;;234.77;88.00;;;;;;;;;;4972993;28;20416;-43
2024/01/27 11:50:22;;;;;;;235.60;90.70;;;;;;;;;;4972878;28;20467;-43
2024/01/27 11:52:48;;;;;;;237.80;94.57;;;;;;;;;;4972859;28;20932;-43
2024/01/27 11:55:15;;;;;;;231.27;86.23;;;;;;;;;;4972419;28;20871;-43
2024/01/27 11:57:41;;;;;;;231.93;87.83;;;;;;;;;;4972965;28;20412;-43
2024/01/27 12:00:09;;;;;;;231.40;86.53;;;;;;;;;;4971561;28;20955;-43
2024/01/27 12:02:35;;;;;;;236.77;88.37;;;;;;;;;;4972731;28;20443;-43
2024/01/27 12:05:01;;;;;;;237.57;93.53;;;;;;;;;;4972352;28;20428;-43
2024/01/27 12:07:27;;;;;;;230.80;87.03;;;;;;;;;;4972908;28;20460;-43
2024/01/27 12:09:53;;;;;;;235.63;88.87;;;;;;;;;;4972739;28;20464;-43
2024/01/27 12:12:20;;;;;;;233.03;84.17;;;;;;;;;;4972707;28;20460;-43
2024/01/27 12:14:47;;;;;;;237.17;90.83;;;;;;;;;;4972360;28;20478;-43
2024/01/27 12:17:13;;;;;;;233.30;84.90;;;;;;;;;;4972694;28;20413;-44
2024/01/27 12:19:39;;;;;;;236.07;85.27;;;;;;;;;;4974193;28;20177;-44
2024/01/27 12:22:06;;;;;;;238.13;92.63;;;;;;;;;;4992090;28;20434;-44
2024/01/27 12:24:32;;;;;;;236.45;88.10;;;;;;;;;;4953453;28;20484;-43
2024/01/27 12:26:58;;;;;;;239.67;90.67;;;;;;;;;;4972235;28;20766;-43
2024/01/27 12:29:24;;;;;;;236.40;87.83;;;;;;;;;;4976420;28;20942;-43
2024/01/27 12:31:50;;;;;;;242.27;91.33;;;;;;;;;;4975952;28;20436;-43
2024/01/27 12:34:16;;;;;;;240.30;87.17;;;;;;;;;;4975834;28;20471;-43
2024/01/27 12:36:42;;;;;;;238.33;85.80;;;;;;;;;;4976124;28;20416;-43
2024/01/27 12:39:09;;;;;;;240.77;86.50;;;;;;;;;;4976051;28;20412;-44
2024/01/27 12:41:35;;;;;;;239.45;86.68;;;;;;;;;;4976167;28;20776;-43
2024/01/27 12:44:01;;;;;;;239.00;86.50;;;;;;;;;;4975709;28;20200;-43
2024/01/27 12:46:31;;;;;;;237.63;82.57;;;;;;;;;;4976105;28;20184;-43
2024/01/27 12:48:57;;;;;;;236.40;81.32;;;;;;;;;;4975973;28;20552;-43
2024/01/27 12:51:24;;;;;;;238.40;83.47;;;;;;;;;;4976133;28;20183;-45
2024/01/27 12:53:50;;;;;;;236.68;80.40;;;;;;;;;;4975540;28;20422;-43
2024/01/27 12:56:16;;;;;;;237.93;83.17;;;;;;;;;;4975758;28;20217;-43
2024/01/27 12:58:42;;;;;;;238.23;83.82;;;;;;;;;;4977091;28;20449;-44
2024/01/27 13:01:09;;;;;;;239.05;82.68;;;;;;;;;;4995158;28;20163;-42
2024/01/27 13:03:35;;;;;;;243.20;87.18;;;;;;;;;;4976714;28;20175;-43
2024/01/27 13:06:02;;;;;;;237.77;84.65;;;;;;;;;;4975421;28;20205;-43
2024/01/27 13:08:28;;;;;;;243.50;91.05;;;;;;;;;;4975312;28;20175;-43
2024/01/27 13:10:54;;;;;;;237.57;82.40;;;;;;;;;;4974558;28;20233;-43
2024/01/27 13:13:20;;;;;;;237.45;83.35;;;;;;;;;;4967225;28;20906;-43
2024/01/27 13:15:46;;;;;;;233.40;76.93;;;;;;;;;;4975126;28;20208;-43
2024/01/27 13:18:12;;;;;;;235.98;82.80;;;;;;;;;;4975474;28;20252;-43
2024/01/27 13:20:40;;;;;;;239.53;84.30;;;;;;;;;;4975420;28;20583;-42
2024/01/27 13:23:06;;;;;;;237.68;82.18;;;;;;;;;;4975145;28;20504;-43
2024/01/27 13:25:32;;;;;;;235.13;80.25;;;;;;;;;;4975022;28;20193;-43
2024/01/27 13:27:58;;;;;;;236.27;80.47;;;;;;;;;;4974988;28;20618;-43
2024/01/27 13:30:25;;;;;;;234.38;80.45;;;;;;;;;;4975214;28;20407;-44
2024/01/27 13:32:51;;;;;;;232.35;78.15;;;;;;;;;;4975192;28;20174;-43
2024/01/27 13:35:17;;;;;;;235.37;81.17;;;;;;;;;;4974004;28;20268;-43
2024/01/27 13:37:43;;;;;;;236.27;81.57;;;;;;;;;;4974210;28;20410;-43
2024/01/27 13:40:09;;;;;;;236.45;82.40;;;;;;;;;;4974896;28;20943;-43
2024/01/27 13:42:35;;;;;;;237.30;83.28;;;;;;;;;;4974388;28;20211;-44
2024/01/27 13:45:02;;;;;;;237.32;84.75;;;;;;;;;;4973519;28;20700;-43
2024/01/27 13:47:28;;;;;;;237.38;85.95;;;;;;;;;;4974362;28;20180;-43
2024/01/27 13:49:54;;;;;;;237.90;86.65;;;;;;;;;;4975360;28;20722;-43
2024/01/27 13:52:20;;;;;;;241.37;90.07;;;;;;;;;;4974285;28;20204;-43
2024/01/27 13:54:46;;;;;;;237.17;85.37;;;;;;;;;;4974391;28;20968;-43
2024/01/27 13:57:12;;;;;;;239.27;88.00;;;;;;;;;;4973566;28;20465;-44
2024/01/27 13:59:38;;;;;;;242.60;91.20;;;;;;;;;;4972809;28;20497;-45